Time;durP1;ratioP1;P1;durP2;ratioP2;P2;SDS_P1;SDS_P2;PMS_P1;PMS_P2;Temp;Humidity;BMP_temperature;BMP_pressure;BME280_temperature;BME280_humidity;BME280_pressure;Samples;Min_cycle;Max_cycle;Signal;HPM_P1;HPM_P2
2023/08/15 00:02:04;;;;;;;0.80;0.80;;;21.40;86.40;;;;;;4919972;29;20534;-82
2023/08/15 00:04:35;;;;;;;1.67;1.57;;;21.30;86.70;;;;;;4918401;29;20518;-83
2023/08/15 00:07:09;;;;;;;0.80;0.80;;;21.30;87.20;;;;;;4933066;29;20451;-82
2023/08/15 00:09:37;;;;;;;0.80;0.80;;;21.30;86.90;;;;;;4920446;29;20439;-83
2023/08/15 00:12:05;;;;;;;1.13;0.80;;;21.30;87.10;;;;;;4923622;29;20450;-82
2023/08/15 00:14:34;;;;;;;1.63;1.53;;;21.20;87.30;;;;;;4922320;29;20424;-81
2023/08/15 00:17:01;;;;;;;0.60;0.60;;;21.20;87.70;;;;;;4930742;29;20519;-83
2023/08/15 00:19:28;;;;;;;1.23;1.23;;;21.10;87.90;;;;;;4921493;29;20455;-82
2023/08/15 00:21:55;;;;;;;0.80;0.80;;;21.20;88.00;;;;;;4915025;29;20480;-84
2023/08/15 00:24:22;;;;;;;0.80;0.80;;;21.20;86.90;;;;;;4922741;29;20464;-82
2023/08/15 00:26:49;;;;;;;0.90;0.90;;;21.30;86.70;;;;;;4910169;29;20484;-83
2023/08/15 00:29:17;;;;;;;2.00;1.10;;;21.50;85.00;;;;;;4924182;29;20545;-83
2023/08/15 00:31:44;;;;;;;0.70;0.70;;;21.50;84.20;;;;;;4915788;29;21009;-81
2023/08/15 00:34:11;;;;;;;2.33;2.13;;;21.80;83.40;;;;;;4920620;29;20635;-83
2023/08/15 00:36:38;;;;;;;0.70;0.70;;;22.00;81.90;;;;;;4924301;29;20447;-83
2023/08/15 00:39:05;;;;;;;0.60;0.60;;;22.10;81.10;;;;;;4924550;29;20486;-83
2023/08/15 00:41:32;;;;;;;0.70;0.70;;;22.10;80.70;;;;;;4923440;29;20489;-83
2023/08/15 00:43:59;;;;;;;1.17;1.17;;;22.20;80.40;;;;;;4915758;29;20514;-83
2023/08/15 00:46:28;;;;;;;0.70;0.70;;;22.20;80.30;;;;;;4922119;29;20798;-85
2023/08/15 00:48:55;;;;;;;1.00;1.00;;;22.20;79.90;;;;;;4911482;29;20685;-83
2023/08/15 00:51:23;;;;;;;0.60;0.60;;;22.40;79.70;;;;;;4917491;29;20458;-84
2023/08/15 00:53:51;;;;;;;2.63;1.80;;;22.50;78.60;;;;;;4917548;29;20522;-82
2023/08/15 00:56:18;;;;;;;0.90;0.90;;;22.50;79.30;;;;;;4915779;29;20460;-84
2023/08/15 00:58:46;;;;;;;1.20;1.20;;;22.30;79.90;;;;;;4912694;29;20439;-82
2023/08/15 01:01:21;;;;;;;19.10;2.10;;;22.30;80.10;;;;;;4913590;29;20814;-80
2023/08/15 01:03:49;;;;;;;1.90;1.80;;;22.30;80.00;;;;;;4917943;29;20822;-85
2023/08/15 01:06:16;;;;;;;1.00;1.00;;;22.30;80.50;;;;;;4911704;29;20565;-81
2023/08/15 01:08:43;;;;;;;0.97;0.97;;;22.20;81.20;;;;;;4912079;29;20474;-81
2023/08/15 01:11:11;;;;;;;0.70;0.70;;;22.10;81.30;;;;;;4915017;29;20493;-81
2023/08/15 01:14:00;;;;;;;1.37;1.37;;;22.20;81.90;;;;;;4917924;29;20812;-79
2023/08/15 01:16:34;;;;;;;0.97;0.97;;;21.90;82.40;;;;;;4922435;29;20468;-82
2023/08/15 01:19:23;;;;;;;1.23;1.23;;;21.80;82.70;;;;;;4917946;29;20444;-82
2023/08/15 01:21:54;;;;;;;0.80;0.80;;;21.70;83.30;;;;;;4915110;29;20472;-81
2023/08/15 01:24:22;;;;;;;1.17;1.17;;;21.70;83.40;;;;;;4904386;29;20448;-86
2023/08/15 01:26:49;;;;;;;0.70;0.70;;;21.70;83.20;;;;;;4915382;29;20490;-81
2023/08/15 01:29:16;;;;;;;1.17;1.17;;;21.80;82.90;;;;;;4914738;29;20557;-83
2023/08/15 01:32:04;;;;;;;1.30;1.23;;;21.70;82.90;;;;;;4936900;29;20523;-81
2023/08/15 01:34:40;;;;;;;1.13;1.13;;;21.80;82.50;;;;;;4919661;29;20476;-81
2023/08/15 01:37:14;;;;;;;0.97;0.97;;;21.80;82.20;;;;;;4910529;29;20442;-82
2023/08/15 01:39:43;;;;;;;2.10;2.00;;;21.80;82.80;;;;;;4923736;29;20507;-84
2023/08/15 01:42:11;;;;;;;0.80;0.80;;;21.70;82.50;;;;;;4923288;29;20497;-81
2023/08/15 01:44:38;;;;;;;0.67;0.67;;;21.70;82.60;;;;;;4924161;29;20447;-81
2023/08/15 01:47:06;;;;;;;1.00;1.00;;;21.70;83.20;;;;;;4924145;29;20525;-83
2023/08/15 01:49:33;;;;;;;1.87;1.77;;;21.70;82.50;;;;;;4919829;29;20487;-83
2023/08/15 01:52:00;;;;;;;1.00;1.00;;;21.70;82.40;;;;;;4919633;29;20663;-82
2023/08/15 01:54:27;;;;;;;1.33;1.23;;;21.70;82.20;;;;;;4923517;29;20474;-82
2023/08/15 01:56:54;;;;;;;0.73;0.73;;;21.70;82.10;;;;;;4922920;29;20460;-82
2023/08/15 01:59:21;;;;;;;0.90;0.90;;;21.70;81.50;;;;;;4912604;29;20514;-81
2023/08/15 02:01:49;;;;;;;1.00;1.00;;;21.80;81.90;;;;;;4922108;29;20510;-81
2023/08/15 02:04:15;;;;;;;0.80;0.80;;;21.80;81.70;;;;;;4912263;29;20710;-83
2023/08/15 02:06:42;;;;;;;1.03;1.00;;;21.80;80.90;;;;;;4913127;29;20475;-82
2023/08/15 02:09:09;;;;;;;0.67;0.67;;;21.70;80.70;;;;;;4908549;29;20415;-81
2023/08/15 02:11:36;;;;;;;0.80;0.80;;;21.80;80.90;;;;;;4914584;29;20426;-79
2023/08/15 02:14:03;;;;;;;0.90;0.90;;;21.80;80.70;;;;;;4915155;29;20481;-82
2023/08/15 02:16:30;;;;;;;1.00;1.00;;;21.80;80.60;;;;;;4909236;29;20530;-81
2023/08/15 02:18:57;;;;;;;1.00;1.00;;;21.70;80.60;;;;;;4937481;29;20484;-81
2023/08/15 02:21:24;;;;;;;1.90;0.97;;;21.70;80.90;;;;;;4910791;29;20545;-82
2023/08/15 02:23:51;;;;;;;1.13;1.13;;;21.60;80.80;;;;;;4917810;29;20483;-82
2023/08/15 02:26:18;;;;;;;0.83;0.83;;;21.70;80.10;;;;;;4915958;29;20542;-83
2023/08/15 02:28:46;;;;;;;1.30;1.23;;;21.90;78.90;;;;;;4917783;29;20458;-80
2023/08/15 02:31:13;;;;;;;0.90;0.90;;;22.10;77.60;;;;;;4907810;29;20481;-79
2023/08/15 02:33:40;;;;;;;3.00;2.00;;;22.20;77.40;;;;;;4920179;29;20502;-84
2023/08/15 02:36:08;;;;;;;0.70;0.70;;;22.20;76.60;;;;;;4912066;29;20443;-82
2023/08/15 02:38:35;;;;;;;1.00;1.00;;;22.30;76.20;;;;;;4912783;29;20469;-82
2023/08/15 02:41:02;;;;;;;3.90;2.73;;;22.30;76.60;;;;;;4917413;29;20455;-85
2023/08/15 02:43:30;;;;;;;0.60;0.60;;;22.30;76.50;;;;;;4916836;29;20494;-82
2023/08/15 02:45:57;;;;;;;0.80;0.80;;;22.30;76.90;;;;;;4913381;29;20882;-80
2023/08/15 02:48:24;;;;;;;0.97;0.97;;;22.10;77.00;;;;;;4921194;29;20538;-84
2023/08/15 02:50:50;;;;;;;0.83;0.83;;;22.10;77.20;;;;;;4918534;29;20440;-82
2023/08/15 02:53:17;;;;;;;2.00;1.90;;;22.20;76.70;;;;;;4911169;29;20661;-82
2023/08/15 02:55:49;;;;;;;0.70;0.70;;;22.10;77.30;;;;;;4912724;29;20455;-82
2023/08/15 02:58:17;;;;;;;1.63;1.53;;;22.10;77.40;;;;;;4915929;29;20447;-84
2023/08/15 03:00:44;;;;;;;1.73;1.63;;;22.00;77.70;;;;;;4911510;29;20450;-82
2023/08/15 03:03:11;;;;;;;1.00;1.00;;;21.90;79.00;;;;;;4915802;29;20498;-79
2023/08/15 03:05:38;;;;;;;0.70;0.70;;;21.60;80.70;;;;;;4917369;29;20456;-78
2023/08/15 03:08:05;;;;;;;1.17;1.17;;;21.50;81.00;;;;;;4910542;29;20522;-83
2023/08/15 03:10:35;;;;;;;1.80;1.70;;;21.30;81.40;;;;;;4908784;29;20471;-81
2023/08/15 03:13:03;;;;;;;1.93;1.83;;;21.20;81.50;;;;;;4922974;29;20601;-79
2023/08/15 03:15:30;;;;;;;0.70;0.70;;;21.40;81.00;;;;;;4924102;29;20887;-80
2023/08/15 03:17:57;;;;;;;0.93;0.93;;;21.50;80.60;;;;;;4910808;29;20445;-81
2023/08/15 03:20:25;;;;;;;0.87;0.87;;;21.60;80.40;;;;;;4920359;29;20619;-82
2023/08/15 03:22:53;;;;;;;1.23;1.23;;;21.50;80.60;;;;;;4905912;29;20525;-82
2023/08/15 03:25:19;;;;;;;0.60;0.60;;;21.40;81.30;;;;;;4910917;29;20478;-79
2023/08/15 03:27:47;;;;;;;1.17;1.17;;;21.40;81.60;;;;;;4916151;29;20720;-78
2023/08/15 03:30:13;;;;;;;0.80;0.80;;;21.30;81.60;;;;;;4911036;29;20497;-82
2023/08/15 03:32:41;;;;;;;1.57;1.47;;;21.30;81.60;;;;;;4920297;29;20447;-81
2023/08/15 03:35:08;;;;;;;1.30;1.30;;;21.20;81.90;;;;;;4914841;29;20460;-82
2023/08/15 03:37:35;;;;;;;1.30;1.20;;;21.10;82.60;;;;;;4911940;29;20426;-81
2023/08/15 03:40:03;;;;;;;0.70;0.70;;;20.90;83.30;;;;;;4912543;29;20447;-82
2023/08/15 03:42:31;;;;;;;6.60;1.83;;;20.80;83.70;;;;;;4920161;29;20461;-82
2023/08/15 03:44:58;;;;;;;0.80;0.80;;;20.60;84.20;;;;;;4920308;29;20527;-80
2023/08/15 03:47:25;;;;;;;1.57;1.47;;;20.70;84.60;;;;;;4914823;29;20463;-82
2023/08/15 03:49:52;;;;;;;1.10;1.10;;;20.70;85.00;;;;;;4921772;29;20443;-83
2023/08/15 03:52:19;;;;;;;0.60;0.60;;;20.60;85.30;;;;;;4913727;29;20446;-82
2023/08/15 03:54:46;;;;;;;1.17;1.17;;;20.60;86.00;;;;;;4925243;29;20793;-81
2023/08/15 03:57:13;;;;;;;0.60;0.60;;;20.40;86.60;;;;;;4925729;29;20470;-82
2023/08/15 03:59:40;;;;;;;2.93;2.70;;;20.40;86.70;;;;;;4921457;29;20435;-82
2023/08/15 04:02:07;;;;;;;0.90;0.90;;;20.30;86.70;;;;;;4919315;29;20490;-81
2023/08/15 04:04:34;;;;;;;1.03;1.00;;;20.30;87.00;;;;;;4914733;29;20491;-82
2023/08/15 04:07:01;;;;;;;11.13;1.73;;;20.30;87.40;;;;;;4924933;29;20458;-82
2023/08/15 04:09:28;;;;;;;0.60;0.60;;;20.10;88.00;;;;;;4924652;29;20506;-82
2023/08/15 04:11:55;;;;;;;0.70;0.70;;;20.10;88.40;;;;;;4915568;29;20693;-82
2023/08/15 04:14:22;;;;;;;0.73;0.73;;;20.10;88.20;;;;;;4915582;29;20523;-81
2023/08/15 04:16:49;;;;;;;0.90;0.90;;;20.10;88.30;;;;;;4914531;29;20441;-81
2023/08/15 04:19:16;;;;;;;3.13;1.87;;;20.10;88.30;;;;;;4920361;29;20444;-82
2023/08/15 04:21:43;;;;;;;1.13;1.13;;;20.10;88.70;;;;;;4932902;29;20450;-85
2023/08/15 04:24:10;;;;;;;3.43;1.80;;;20.10;88.80;;;;;;4908741;29;20554;-82
2023/08/15 04:26:37;;;;;;;2.00;1.30;;;20.10;89.20;;;;;;4910834;29;20512;-83
2023/08/15 04:29:04;;;;;;;1.67;1.57;;;20.00;89.70;;;;;;4911053;29;20444;-83
2023/08/15 04:31:32;;;;;;;2.73;2.53;;;20.00;89.50;;;;;;4924971;29;20645;-82
2023/08/15 04:33:59;;;;;;;0.60;0.60;;;20.00;89.80;;;;;;4921220;29;20491;-82
2023/08/15 04:36:26;;;;;;;1.17;1.07;;;20.20;89.80;;;;;;4909746;29;20456;-84
2023/08/15 04:38:53;;;;;;;1.00;1.00;;;20.30;89.00;;;;;;4913650;29;20632;-81
2023/08/15 04:41:20;;;;;;;1.00;1.00;;;20.30;88.50;;;;;;4924157;29;20514;-82
2023/08/15 04:43:47;;;;;;;1.30;1.20;;;20.40;88.60;;;;;;4912193;29;20491;-83
2023/08/15 04:46:14;;;;;;;0.90;0.90;;;20.60;87.70;;;;;;4907221;29;20448;-83
2023/08/15 04:48:41;;;;;;;0.70;0.70;;;20.80;87.80;;;;;;4910134;29;20459;-82
2023/08/15 04:51:08;;;;;;;2.07;1.97;;;20.80;86.80;;;;;;4914266;29;20515;-81
2023/08/15 04:53:35;;;;;;;1.23;1.13;;;20.90;87.20;;;;;;4908922;29;20790;-83
2023/08/15 04:56:02;;;;;;;2.83;2.40;;;21.20;85.40;;;;;;4924917;29;20507;-82
2023/08/15 04:58:29;;;;;;;1.77;1.67;;;21.30;85.90;;;;;;4921720;29;20525;-83
2023/08/15 05:00:56;;;;;;;1.13;1.13;;;21.50;85.00;;;;;;4923843;29;20514;-82
2023/08/15 05:03:23;;;;;;;1.93;1.87;;;21.40;84.20;;;;;;4913442;29;20446;-82
2023/08/15 05:05:50;;;;;;;1.07;1.03;;;21.70;83.80;;;;;;4909961;29;20459;-81
2023/08/15 05:08:17;;;;;;;1.00;1.00;;;21.70;83.70;;;;;;4905986;29;20523;-83
2023/08/15 05:10:44;;;;;;;15.97;2.20;;;21.90;82.90;;;;;;4916648;29;20451;-81
2023/08/15 05:13:11;;;;;;;0.90;0.90;;;21.90;82.60;;;;;;4920389;29;20511;-85
2023/08/15 05:15:39;;;;;;;0.77;0.77;;;21.90;82.20;;;;;;4920580;29;20492;-85
2023/08/15 05:18:06;;;;;;;0.60;0.60;;;22.10;82.50;;;;;;4921119;29;20748;-83
2023/08/15 05:20:34;;;;;;;0.70;0.70;;;22.20;82.70;;;;;;4909193;29;20450;-83
2023/08/15 05:23:01;;;;;;;1.03;1.03;;;22.30;82.00;;;;;;4912301;29;20547;-82
2023/08/15 05:25:28;;;;;;;1.20;1.10;;;22.50;82.00;;;;;;4904057;29;20427;-81
2023/08/15 05:27:55;;;;;;;0.70;0.70;;;22.70;79.70;;;;;;4905718;29;20514;-82
2023/08/15 05:30:22;;;;;;;1.03;1.03;;;22.80;78.70;;;;;;4917257;29;20455;-78
2023/08/15 05:32:49;;;;;;;1.27;1.17;;;22.90;79.80;;;;;;4915307;29;20546;-81
2023/08/15 05:35:16;;;;;;;0.73;0.73;;;23.00;78.70;;;;;;4913547;29;20454;-80
2023/08/15 05:37:43;;;;;;;1.30;1.20;;;23.10;78.50;;;;;;4936793;29;20695;-79
2023/08/15 05:40:10;;;;;;;0.80;0.80;;;23.20;79.00;;;;;;4911006;29;20434;-81
2023/08/15 05:42:37;;;;;;;0.90;0.90;;;23.30;78.20;;;;;;4911998;29;20441;-81
2023/08/15 05:45:05;;;;;;;1.53;1.43;;;23.30;78.10;;;;;;4904068;29;20523;-83
2023/08/15 05:47:32;;;;;;;0.87;0.87;;;23.40;78.20;;;;;;4912745;29;20838;-80
2023/08/15 05:49:59;;;;;;;1.00;1.00;;;23.40;77.50;;;;;;4913180;29;20430;-79
2023/08/15 05:52:26;;;;;;;1.27;1.20;;;23.50;77.10;;;;;;4915033;29;20521;-81
2023/08/15 05:54:55;;;;;;;0.90;0.90;;;23.50;76.50;;;;;;4911677;29;20450;-80
2023/08/15 05:57:23;;;;;;;0.87;0.87;;;23.60;76.40;;;;;;4904476;29;20491;-81
2023/08/15 05:59:49;;;;;;;1.43;1.33;;;23.90;75.60;;;;;;4911342;29;20482;-79
2023/08/15 06:02:18;;;;;;;0.87;0.87;;;24.30;75.10;;;;;;4908720;29;20493;-80
2023/08/15 06:04:45;;;;;;;2.53;2.10;;;24.60;74.50;;;;;;4916378;29;20675;-82
2023/08/15 06:07:13;;;;;;;1.47;1.43;;;24.70;73.20;;;;;;4913902;29;20493;-78
2023/08/15 06:09:43;;;;;;;0.80;0.80;;;24.80;73.40;;;;;;4921867;29;20807;-84
2023/08/15 06:12:10;;;;;;;2.13;2.03;;;24.80;72.80;;;;;;4912701;29;20456;-81
2023/08/15 06:14:41;;;;;;;0.70;0.70;;;24.80;73.40;;;;;;4915167;29;20523;-80
2023/08/15 06:17:08;;;;;;;0.90;0.90;;;25.00;71.80;;;;;;4915001;29;20470;-80
2023/08/15 06:19:35;;;;;;;0.80;0.80;;;25.20;72.90;;;;;;4918759;29;20998;-81
2023/08/15 06:22:01;;;;;;;1.43;1.33;;;25.40;72.40;;;;;;4919102;29;20489;-79
2023/08/15 06:24:31;;;;;;;1.73;1.63;;;25.50;71.60;;;;;;4917583;29;20468;-79
2023/08/15 06:26:58;;;;;;;1.00;1.00;;;25.80;70.90;;;;;;4908955;29;20780;-80
2023/08/15 06:29:25;;;;;;;2.00;1.90;;;26.20;69.30;;;;;;4908278;29;20447;-81
2023/08/15 06:31:53;;;;;;;0.80;0.80;;;26.30;69.10;;;;;;4931876;29;20426;-80
2023/08/15 06:34:20;;;;;;;0.90;0.90;;;26.60;67.40;;;;;;4913012;29;20418;-79
2023/08/15 06:36:47;;;;;;;0.90;0.90;;;26.80;67.30;;;;;;4918077;29;20446;-78
2023/08/15 06:39:14;;;;;;;1.07;1.07;;;26.80;66.00;;;;;;4906447;29;20418;-80
2023/08/15 06:41:41;;;;;;;1.20;1.17;;;26.80;65.50;;;;;;4918255;29;20444;-82
2023/08/15 06:44:08;;;;;;;0.87;0.87;;;27.10;66.60;;;;;;4923390;29;20532;-80
2023/08/15 06:46:38;;;;;;;0.83;0.83;;;27.30;65.00;;;;;;4915463;29;20442;-80
2023/08/15 06:49:06;;;;;;;0.80;0.80;;;27.60;64.30;;;;;;4913608;29;20427;-83
2023/08/15 06:51:33;;;;;;;4.20;1.77;;;27.60;63.10;;;;;;4907703;29;20431;-82
2023/08/15 06:54:00;;;;;;;1.63;1.53;;;27.80;62.50;;;;;;4911720;29;20465;-79
2023/08/15 06:56:27;;;;;;;1.07;1.07;;;28.00;62.30;;;;;;4919950;29;20486;-80
2023/08/15 06:58:54;;;;;;;1.43;1.33;;;28.20;61.70;;;;;;4919506;29;20462;-83
2023/08/15 07:01:20;;;;;;;2.50;1.40;;;28.60;61.90;;;;;;4923434;29;20666;-79
2023/08/15 07:03:47;;;;;;;1.00;1.00;;;28.90;61.30;;;;;;4918733;29;20494;-82
2023/08/15 07:06:16;;;;;;;1.50;1.40;;;29.20;60.20;;;;;;4915729;29;20422;-80
2023/08/15 07:08:46;;;;;;;1.10;1.10;;;29.60;60.40;;;;;;4921892;29;20443;-82
2023/08/15 07:11:14;;;;;;;1.60;1.50;;;30.10;56.90;;;;;;4909029;29;20654;-80
2023/08/15 07:13:41;;;;;;;1.10;1.10;;;30.60;55.30;;;;;;4905051;29;20460;-84
2023/08/15 07:16:08;;;;;;;2.93;2.70;;;30.90;53.30;;;;;;4913108;29;20475;-83
2023/08/15 07:18:36;;;;;;;1.03;1.03;;;31.10;53.10;;;;;;4916048;29;20432;-86
2023/08/15 07:21:03;;;;;;;1.00;1.00;;;31.20;52.90;;;;;;4908979;29;20464;-84
2023/08/15 07:23:30;;;;;;;1.00;1.00;;;31.60;50.80;;;;;;4913865;29;20527;-78
2023/08/15 07:26:00;;;;;;;0.90;0.90;;;31.70;51.20;;;;;;4915013;29;20445;-82
2023/08/15 07:28:28;;;;;;;1.30;1.30;;;32.30;49.00;;;;;;4917182;29;20483;-80
2023/08/15 07:30:55;;;;;;;1.10;1.10;;;32.80;48.90;;;;;;4912654;29;20505;-84
2023/08/15 07:33:23;;;;;;;1.43;1.40;;;33.20;48.30;;;;;;4928919;29;20456;-79
2023/08/15 07:35:49;;;;;;;1.63;1.27;;;33.80;45.80;;;;;;4917692;29;20436;-80
2023/08/15 07:38:16;;;;;;;1.10;1.10;;;33.80;45.60;;;;;;4913418;29;20460;-82
2023/08/15 07:40:44;;;;;;;1.83;1.73;;;34.50;45.30;;;;;;4913718;29;20486;-84
2023/08/15 07:43:10;;;;;;;1.77;1.67;;;35.10;43.20;;;;;;4917152;29;20438;-80
2023/08/15 07:45:37;;;;;;;0.93;0.93;;;35.00;43.60;;;;;;4913949;29;20536;-83
2023/08/15 07:48:05;;;;;;;1.20;1.20;;;35.30;42.60;;;;;;4920740;29;20467;-81
2023/08/15 07:50:32;;;;;;;3.60;1.67;;;35.30;42.40;;;;;;4917796;29;20455;-81
2023/08/15 07:52:59;;;;;;;1.63;1.53;;;35.40;43.00;;;;;;4921284;29;20454;-86
2023/08/15 07:55:27;;;;;;;1.00;1.00;;;35.70;43.20;;;;;;4907356;29;20462;-83
2023/08/15 07:57:57;;;;;;;2.80;2.63;;;35.40;42.00;;;;;;4914334;29;20458;-83
2023/08/15 08:00:25;;;;;;;2.17;2.07;;;36.00;42.30;;;;;;4926051;29;20593;-85
2023/08/15 08:02:52;;;;;;;2.10;2.00;;;36.30;41.70;;;;;;4920946;29;20447;-82
2023/08/15 08:05:20;;;;;;;3.30;3.07;;;36.80;41.20;;;;;;4927190;29;20498;-78
2023/08/15 08:07:49;;;;;;;3.07;2.33;;;37.10;40.10;;;;;;4919767;29;20464;-83
2023/08/15 08:10:16;;;;;;;1.10;1.10;;;36.00;40.50;;;;;;4931110;29;20478;-83
2023/08/15 08:12:45;;;;;;;1.20;1.20;;;35.80;41.00;;;;;;4932426;29;20486;-80
2023/08/15 08:15:13;;;;;;;1.27;1.27;;;36.60;41.80;;;;;;4917772;29;20475;-80
2023/08/15 08:17:40;;;;;;;1.87;1.77;;;37.00;40.60;;;;;;4925006;29;20728;-85
2023/08/15 08:20:12;;;;;;;1.33;1.33;;;37.50;39.30;;;;;;4923460;29;20451;-85
2023/08/15 08:22:39;;;;;;;1.23;1.23;;;37.20;37.80;;;;;;4918547;29;20470;-82
2023/08/15 08:25:19;;;;;;;1.10;1.10;;;36.50;38.70;;;;;;4917374;29;20499;-86
2023/08/15 08:27:47;;;;;;;1.27;1.27;;;37.00;39.70;;;;;;4917342;29;20471;-82
2023/08/15 08:30:19;;;;;;;1.30;1.30;;;37.10;38.60;;;;;;4918575;29;20721;-88
2023/08/15 08:32:47;;;;;;;1.40;1.40;;;37.00;38.50;;;;;;4918474;29;20512;-81
2023/08/15 08:35:17;;;;;;;1.93;1.83;;;37.40;39.00;;;;;;4913943;29;20632;-84
2023/08/15 08:37:46;;;;;;;1.83;1.73;;;37.20;38.30;;;;;;4919097;29;20772;-83
2023/08/15 08:40:15;;;;;;;1.37;1.37;;;37.10;38.70;;;;;;4922340;29;20470;-80
2023/08/15 08:42:43;;;;;;;1.20;1.20;;;37.20;37.80;;;;;;4905093;29;20898;-88
2023/08/15 08:45:10;;;;;;;1.10;1.10;;;36.90;37.70;;;;;;4908550;29;20491;-83
2023/08/15 08:47:39;;;;;;;2.53;2.33;;;36.90;38.10;;;;;;4915399;29;20511;-86
2023/08/15 08:50:10;;;;;;;1.20;1.20;;;36.70;38.10;;;;;;4914077;29;20460;-84
2023/08/15 08:52:41;;;;;;;1.10;1.10;;;36.70;38.10;;;;;;4921836;29;20823;-85
2023/08/15 08:55:10;;;;;;;1.20;1.20;;;37.10;37.20;;;;;;4923992;29;20470;-85
2023/08/15 08:57:39;;;;;;;1.63;1.53;;;36.50;38.30;;;;;;4914587;29;20872;-81
2023/08/15 09:00:07;;;;;;;1.47;1.40;;;36.70;38.20;;;;;;4924874;29;20479;-85
2023/08/15 09:02:35;;;;;;;1.03;1.03;;;36.70;36.70;;;;;;4914233;29;20447;-80
2023/08/15 09:05:04;;;;;;;1.20;1.20;;;36.40;37.00;;;;;;4915146;29;20555;-85
2023/08/15 09:07:33;;;;;;;1.50;1.40;;;36.50;37.10;;;;;;4933985;29;20483;-83
2023/08/15 09:10:00;;;;;;;1.60;1.50;;;37.20;36.90;;;;;;4925952;29;20443;-82
2023/08/15 09:12:37;;;;;;;1.17;1.17;;;36.90;37.00;;;;;;4920763;29;20519;-83
2023/08/15 09:15:07;;;;;;;1.70;1.60;;;36.00;37.10;;;;;;4912664;29;20905;-82
2023/08/15 09:17:34;;;;;;;1.10;1.10;;;36.30;36.70;;;;;;4914842;29;20585;-83
2023/08/15 09:20:16;;;;;;;1.17;1.17;;;36.40;37.00;;;;;;4926649;29;20461;-84
2023/08/15 09:22:45;;;;;;;1.87;1.77;;;36.60;37.90;;;;;;4920252;29;20457;-80
2023/08/15 09:25:19;;;;;;;1.60;1.50;;;36.50;37.40;;;;;;4912017;29;20491;-84
2023/08/15 09:27:47;;;;;;;1.03;1.03;;;36.10;37.50;;;;;;4911295;29;20535;-86
2023/08/15 09:30:15;;;;;;;1.10;1.10;;;36.20;37.20;;;;;;4921832;29;20447;-83
2023/08/15 09:32:44;;;;;;;1.03;1.03;;;35.30;38.10;;;;;;4912156;29;20455;-88
2023/08/15 09:35:14;;;;;;;1.63;1.40;;;35.30;39.00;;;;;;4906481;29;20586;-83
2023/08/15 09:37:46;;;;;;;1.30;1.20;;;35.00;39.30;;;;;;4912241;29;20711;-81
2023/08/15 09:40:18;;;;;;;0.97;0.97;;;34.60;40.90;;;;;;4920469;29;20519;-82
2023/08/15 09:42:45;;;;;;;1.00;1.00;;;34.20;40.90;;;;;;4917918;29;20451;-79
2023/08/15 09:45:14;;;;;;;1.20;1.20;;;33.70;42.50;;;;;;4919085;29;20501;-82
2023/08/15 09:47:43;;;;;;;2.33;2.23;;;33.90;43.30;;;;;;4912325;29;20455;-83
2023/08/15 09:50:12;;;;;;;1.93;1.83;;;33.60;43.60;;;;;;4914100;29;20474;-81
2023/08/15 09:52:41;;;;;;;0.87;0.87;;;33.30;43.40;;;;;;4911221;29;20447;-81
2023/08/15 09:55:14;;;;;;;0.90;0.90;;;33.00;44.10;;;;;;4918445;29;20482;-83
2023/08/15 09:57:42;;;;;;;1.03;1.03;;;33.10;44.50;;;;;;4924107;29;20458;-82
2023/08/15 10:00:12;;;;;;;1.27;1.20;;;33.60;44.60;;;;;;4917593;29;20513;-83
2023/08/15 10:02:45;;;;;;;0.90;0.90;;;33.20;42.90;;;;;;4925262;29;20431;-80
2023/08/15 10:05:18;;;;;;;1.63;1.53;;;33.10;44.50;;;;;;4913412;29;20866;-80
2023/08/15 10:07:45;;;;;;;1.00;1.00;;;33.50;44.40;;;;;;4906117;29;20462;-80
2023/08/15 10:10:15;;;;;;;0.97;0.97;;;33.50;44.80;;;;;;4928634;29;20645;-81
2023/08/15 10:12:43;;;;;;;1.47;1.37;;;33.50;43.60;;;;;;4907402;29;20511;-81
2023/08/15 10:15:12;;;;;;;1.30;1.30;;;33.30;43.10;;;;;;4920522;29;20458;-79
2023/08/15 10:17:39;;;;;;;1.73;1.63;;;33.10;44.20;;;;;;4913542;29;20448;-83
2023/08/15 10:20:10;;;;;;;1.00;1.00;;;32.80;43.70;;;;;;4913178;29;20451;-82
2023/08/15 10:22:39;;;;;;;1.60;1.50;;;32.50;44.90;;;;;;4908346;29;20458;-79
2023/08/15 10:25:35;;;;;;;2.10;1.97;;;32.30;45.20;;;;;;4923841;29;20557;-86
2023/08/15 10:28:11;;;;;;;1.13;1.13;;;32.50;44.80;;;;;;4916007;29;20446;-83
2023/08/15 10:30:50;;;;;;;0.97;0.97;;;32.30;45.10;;;;;;4928955;29;21085;-84
2023/08/15 10:33:26;;;;;;;1.13;1.03;;;32.40;46.40;;;;;;4916567;29;20479;-78
2023/08/15 10:35:56;;;;;;;0.97;0.97;;;32.60;46.20;;;;;;4919307;29;20521;-81
2023/08/15 10:38:30;;;;;;;1.37;1.27;;;32.50;46.00;;;;;;4908707;29;20471;-82
2023/08/15 10:41:02;;;;;;;1.83;1.17;;;32.60;47.20;;;;;;4909937;29;20494;-80
2023/08/15 10:43:32;;;;;;;0.90;0.90;;;32.80;46.20;;;;;;4910344;29;20460;-84
2023/08/15 10:46:01;;;;;;;1.00;1.00;;;33.00;45.70;;;;;;4911898;29;20586;-81
2023/08/15 10:48:50;;;;;;;1.27;1.20;;;32.70;45.30;;;;;;4914095;29;20679;-79
2023/08/15 10:51:23;;;;;;;0.90;0.90;;;32.50;45.40;;;;;;4916894;29;20639;-85
2023/08/15 10:53:51;;;;;;;1.20;1.20;;;32.40;46.30;;;;;;4911134;29;20425;-83
2023/08/15 10:56:20;;;;;;;2.93;1.57;;;32.40;46.20;;;;;;4921441;29;20487;-83
2023/08/15 10:58:48;;;;;;;1.50;1.40;;;32.60;47.10;;;;;;4926929;29;20503;-81
2023/08/15 11:01:17;;;;;;;1.17;1.07;;;32.80;47.20;;;;;;4921528;29;20447;-81
2023/08/15 11:03:47;;;;;;;3.13;2.83;;;32.80;46.60;;;;;;4915583;29;20414;-82
2023/08/15 11:06:14;;;;;;;1.10;1.10;;;32.80;46.70;;;;;;4912604;29;20823;-85
2023/08/15 11:08:43;;;;;;;1.03;1.03;;;32.70;46.70;;;;;;4911950;29;20764;-84
2023/08/15 11:11:10;;;;;;;1.23;1.20;;;32.60;48.00;;;;;;4918871;29;20459;-81
2023/08/15 11:13:40;;;;;;;0.80;0.80;;;32.60;46.80;;;;;;4920614;29;20451;-81
2023/08/15 11:16:08;;;;;;;1.10;1.10;;;32.50;46.00;;;;;;4923339;29;20490;-84
2023/08/15 11:18:36;;;;;;;2.03;1.87;;;32.60;46.40;;;;;;4915328;29;20451;-81
2023/08/15 11:21:08;;;;;;;1.67;1.57;;;32.70;46.50;;;;;;4914364;29;20479;-85
2023/08/15 11:23:36;;;;;;;1.20;1.20;;;32.60;46.60;;;;;;4919318;29;20507;-82
2023/08/15 11:26:07;;;;;;;0.90;0.90;;;32.70;44.10;;;;;;4921801;29;20616;-84
2023/08/15 11:28:36;;;;;;;2.17;2.00;;;32.80;45.10;;;;;;4913949;29;20439;-82
2023/08/15 11:31:06;;;;;;;1.30;1.20;;;33.00;45.20;;;;;;4912429;29;20528;-83
2023/08/15 11:33:52;;;;;;;0.90;0.90;;;33.00;43.10;;;;;;4915562;29;20452;-83
2023/08/15 11:36:21;;;;;;;0.90;0.90;;;33.00;43.60;;;;;;4918150;29;20426;-86
2023/08/15 11:38:48;;;;;;;6.70;1.80;;;32.90;41.60;;;;;;4912777;29;20475;-81
2023/08/15 11:41:16;;;;;;;2.07;1.97;;;32.80;43.40;;;;;;4917180;29;20423;-81
2023/08/15 11:43:44;;;;;;;1.03;1.03;;;32.90;43.70;;;;;;4912204;29;20447;-78
2023/08/15 11:46:11;;;;;;;1.10;1.10;;;32.60;43.20;;;;;;4919515;29;20778;-79
2023/08/15 11:48:46;;;;;;;0.90;0.90;;;32.80;42.90;;;;;;4923114;29;20458;-83
2023/08/15 11:51:22;;;;;;;2.50;1.13;;;32.90;43.60;;;;;;4925843;29;20895;-84
2023/08/15 11:53:51;;;;;;;0.80;0.80;;;32.80;42.60;;;;;;4907686;29;20446;-81
2023/08/15 11:56:17;;;;;;;0.93;0.93;;;33.00;41.90;;;;;;4916953;29;20823;-82
2023/08/15 11:58:45;;;;;;;1.40;1.30;;;33.00;42.50;;;;;;4941241;29;20507;-84
2023/08/15 12:01:13;;;;;;;5.20;3.73;;;33.00;42.50;;;;;;4926143;29;20478;-81
2023/08/15 12:03:40;;;;;;;1.33;1.23;;;32.80;42.80;;;;;;4923980;29;20418;-85
2023/08/15 12:06:10;;;;;;;1.93;1.83;;;33.00;43.40;;;;;;4919284;29;20499;-79
2023/08/15 12:08:39;;;;;;;1.10;1.00;;;32.90;42.40;;;;;;4913270;29;20506;-84
2023/08/15 12:11:07;;;;;;;0.90;0.90;;;32.90;42.20;;;;;;4916753;29;20456;-85
2023/08/15 12:13:40;;;;;;;0.70;0.70;;;33.00;43.50;;;;;;4921986;29;20414;-85
2023/08/15 12:16:08;;;;;;;6.10;2.10;;;33.10;44.60;;;;;;4918416;29;20470;-81
2023/08/15 12:18:36;;;;;;;0.87;0.87;;;33.30;43.70;;;;;;4915771;29;20661;-82
2023/08/15 12:21:07;;;;;;;0.80;0.80;;;33.30;42.90;;;;;;4917202;29;20772;-79
2023/08/15 12:23:38;;;;;;;0.80;0.80;;;33.20;42.50;;;;;;4910003;29;20486;-79
2023/08/15 12:26:04;;;;;;;2.63;2.47;;;33.20;42.00;;;;;;4916335;29;20666;-84
2023/08/15 12:28:34;;;;;;;1.47;1.37;;;33.20;43.20;;;;;;4919411;29;20878;-86
2023/08/15 12:31:03;;;;;;;1.20;1.20;;;33.20;42.00;;;;;;4912538;29;20652;-87
2023/08/15 12:33:33;;;;;;;1.10;1.10;;;33.10;42.80;;;;;;4915319;29;20744;-86
2023/08/15 12:36:13;;;;;;;1.17;1.17;;;33.20;43.60;;;;;;4918046;29;20455;-83
2023/08/15 12:38:40;;;;;;;2.13;2.03;;;33.30;43.10;;;;;;4917648;29;20652;-83
2023/08/15 12:41:08;;;;;;;2.43;2.23;;;33.50;43.50;;;;;;4916089;29;20447;-82
2023/08/15 12:43:36;;;;;;;0.97;0.97;;;33.50;42.70;;;;;;4920029;29;20633;-85
2023/08/15 12:46:03;;;;;;;0.70;0.70;;;33.50;42.10;;;;;;4927467;29;20537;-82
2023/08/15 12:48:30;;;;;;;1.10;1.10;;;33.30;41.10;;;;;;4914277;29;20452;-86
2023/08/15 12:50:59;;;;;;;1.00;1.00;;;33.30;41.90;;;;;;4928415;29;20455;-82
2023/08/15 12:53:26;;;;;;;1.83;1.73;;;33.40;41.40;;;;;;4920075;29;20431;-85